This is the latest recevied weather packets stored in our database for station/object M0HPP-13. If no packets are shown the sender has not sent any weather packets the latest 10 day(s).
| Time | Temp. | Humidity | Pressure | Rain* | Wind** | Luminosity | Snow |
|---|---|---|---|---|---|---|---|
| 1787671086 | 15.56° C | 86% | 1018.6 hPa | 0 mm | - | 324 W/m² | - |
| 1787670486 | 15.56° C | 87% | 1018.6 hPa | 0 mm | - | 479 W/m² | - |
| 1787669886 | 15.56° C | 87% | 1018.5 hPa | 0 mm | - | 443 W/m² | - |
| 1787669286 | 15.56° C | 85% | 1018.5 hPa | 0 mm | - | 261 W/m² | - |
| 1787667486 | 15.56° C | 86% | 1018.7 hPa | 0 mm | - | 237 W/m² | - |
| 1787666886 | 16.67° C | 80% | 1018.8 hPa | 0 mm | - | 284 W/m² | - |
| 1787666286 | 16.67° C | 81% | 1018.8 hPa | 0 mm | - | 452 W/m² | - |
| 1787665686 | 16.67° C | 82% | 1018.8 hPa | 0 mm | - | 474 W/m² | - |
| 1787665086 | 16.67° C | 82% | 1018.9 hPa | 0 mm | - | 405 W/m² | - |
| 1787664486 | 16.67° C | 82% | 1019 hPa | 0 mm | - | 459 W/m² | - |
| 1787663886 | 16.11° C | 83% | 1018.9 hPa | 0 mm | - | 463 W/m² | - |
| 1787663286 | 16.67° C | 81% | 1018.9 hPa | 0 mm | - | 499 W/m² | - |
| 1787662686 | 16.67° C | 82% | 1019 hPa | 0 mm | - | 480 W/m² | - |
| 1787662086 | 16.67° C | 80% | 1019.1 hPa | 0 mm | - | 482 W/m² | - |
| 1787661486 | 16.67° C | 81% | 1019.1 hPa | 0 mm | - | 487 W/m² | - |
| 1787660886 | 16.11° C | 81% | 1019.1 hPa | 0 mm | - | 481 W/m² | - |
| 1787660286 | 16.11° C | 80% | 1019.1 hPa | 0 mm | - | 475 W/m² | - |
| 1787659686 | 16.11° C | 81% | 1019.2 hPa | 0 mm | - | 343 W/m² | - |
| 1787659086 | 16.11° C | 81% | 1019.1 hPa | 0 mm | - | 376 W/m² | - |
| 1787658486 | 15.56° C | 82% | 1019.2 hPa | 0 mm | - | 465 W/m² | - |
| 1787657886 | 15.56° C | 82% | 1019.3 hPa | 0 mm | - | 463 W/m² | - |
| 1787657286 | 15.56° C | 82% | 1019.3 hPa | 0 mm | - | 452 W/m² | - |
| 1787656686 | 15° C | 84% | 1019.3 hPa | 0 mm | - | 414 W/m² | - |
| 1787656086 | 15° C | 81% | 1019.4 hPa | 0 mm | - | 442 W/m² | - |
| 1787655486 | 15° C | 80% | 1019.5 hPa | 0 mm | - | 437 W/m² | - |
* Rain latest hour (hover to see other rain measurements)
** Current wind speed in m/s (hover to see current wind gust speed)